sensor_id;sensor_type;location;lat;lon;timestamp;P1;durP1;ratioP1;P2;durP2;ratioP2
9140;SDS011;46330;50.822;7.126;2023-02-01T00:00:09;17.02;;;9.73;;
9140;SDS011;46330;50.822;7.126;2023-02-01T00:02:39;17.88;;;9.77;;
9140;SDS011;46330;50.822;7.126;2023-02-01T00:05:07;19.42;;;9.85;;
9140;SDS011;46330;50.822;7.126;2023-02-01T00:07:36;18.42;;;9.32;;
9140;SDS011;46330;50.822;7.126;2023-02-01T00:10:05;19.20;;;9.60;;
9140;SDS011;46330;50.822;7.126;2023-02-01T00:12:33;23.13;;;10.02;;
9140;SDS011;46330;50.822;7.126;2023-02-01T00:15:01;21.98;;;9.63;;
9140;SDS011;46330;50.822;7.126;2023-02-01T00:17:30;18.65;;;8.32;;
9140;SDS011;46330;50.822;7.126;2023-02-01T00:19:59;18.40;;;9.43;;
9140;SDS011;46330;50.822;7.126;2023-02-01T00:22:27;17.27;;;8.95;;
9140;SDS011;46330;50.822;7.126;2023-02-01T00:24:54;21.83;;;9.75;;
9140;SDS011;46330;50.822;7.126;2023-02-01T00:27:22;21.05;;;9.77;;
9140;SDS011;46330;50.822;7.126;2023-02-01T00:29:50;21.05;;;9.63;;
9140;SDS011;46330;50.822;7.126;2023-02-01T00:32:18;20.20;;;9.65;;
9140;SDS011;46330;50.822;7.126;2023-02-01T00:34:46;16.80;;;9.38;;
9140;SDS011;46330;50.822;7.126;2023-02-01T00:37:16;22.13;;;9.68;;
9140;SDS011;46330;50.822;7.126;2023-02-01T00:39:43;22.05;;;9.25;;
9140;SDS011;46330;50.822;7.126;2023-02-01T00:42:12;18.85;;;8.02;;
9140;SDS011;46330;50.822;7.126;2023-02-01T00:44:40;19.23;;;8.93;;
9140;SDS011;46330;50.822;7.126;2023-02-01T00:51:20;21.45;;;7.90;;
9140;SDS011;46330;50.822;7.126;2023-02-01T00:53:51;17.73;;;7.80;;
9140;SDS011;46330;50.822;7.126;2023-02-01T00:56:20;19.75;;;6.32;;
9140;SDS011;46330;50.822;7.126;2023-02-01T00:58:49;15.38;;;6.78;;
9140;SDS011;46330;50.822;7.126;2023-02-01T01:01:18;15.52;;;6.32;;
9140;SDS011;46330;50.822;7.126;2023-02-01T01:03:48;16.73;;;6.85;;
9140;SDS011;46330;50.822;7.126;2023-02-01T01:06:19;13.77;;;5.70;;
9140;SDS011;46330;50.822;7.126;2023-02-01T01:13:02;12.25;;;4.60;;
9140;SDS011;46330;50.822;7.126;2023-02-01T01:15:30;17.65;;;5.05;;
9140;SDS011;46330;50.822;7.126;2023-02-01T01:17:58;16.90;;;4.18;;
9140;SDS011;46330;50.822;7.126;2023-02-01T01:20:26;12.18;;;3.83;;
9140;SDS011;46330;50.822;7.126;2023-02-01T01:22:54;13.98;;;4.70;;
9140;SDS011;46330;50.822;7.126;2023-02-01T01:25:22;14.77;;;4.25;;
9140;SDS011;46330;50.822;7.126;2023-02-01T01:27:50;16.08;;;4.57;;
9140;SDS011;46330;50.822;7.126;2023-02-01T01:30:19;16.88;;;4.28;;
9140;SDS011;46330;50.822;7.126;2023-02-01T01:32:48;14.80;;;4.00;;
9140;SDS011;46330;50.822;7.126;2023-02-01T01:35:17;13.02;;;4.10;;
9140;SDS011;46330;50.822;7.126;2023-02-01T01:37:45;14.93;;;4.18;;
9140;SDS011;46330;50.822;7.126;2023-02-01T01:40:13;14.18;;;3.78;;
9140;SDS011;46330;50.822;7.126;2023-02-01T01:42:42;11.15;;;3.40;;
9140;SDS011;46330;50.822;7.126;2023-02-01T01:45:19;15.30;;;3.67;;
9140;SDS011;46330;50.822;7.126;2023-02-01T01:47:52;13.68;;;3.50;;
9140;SDS011;46330;50.822;7.126;2023-02-01T01:50:23;17.33;;;3.35;;
9140;SDS011;46330;50.822;7.126;2023-02-01T01:52:55;14.93;;;3.28;;
9140;SDS011;46330;50.822;7.126;2023-02-01T01:55:26;12.63;;;3.33;;
9140;SDS011;46330;50.822;7.126;2023-02-01T01:57:59;20.13;;;3.70;;
9140;SDS011;46330;50.822;7.126;2023-02-01T02:00:31;12.60;;;3.30;;
9140;SDS011;46330;50.822;7.126;2023-02-01T02:03:02;9.30;;;2.88;;
9140;SDS011;46330;50.822;7.126;2023-02-01T02:05:34;12.98;;;3.30;;
9140;SDS011;46330;50.822;7.126;2023-02-01T02:08:02;9.90;;;3.72;;
9140;SDS011;46330;50.822;7.126;2023-02-01T02:10:32;15.80;;;3.67;;
9140;SDS011;46330;50.822;7.126;2023-02-01T02:13:14;14.43;;;4.10;;
9140;SDS011;46330;50.822;7.126;2023-02-01T02:15:48;15.15;;;3.45;;
9140;SDS011;46330;50.822;7.126;2023-02-01T02:18:27;12.82;;;3.28;;
9140;SDS011;46330;50.822;7.126;2023-02-01T02:21:16;10.55;;;3.70;;
9140;SDS011;46330;50.822;7.126;2023-02-01T02:23:59;8.95;;;3.33;;
9140;SDS011;46330;50.822;7.126;2023-02-01T02:27:01;17.35;;;4.03;;
9140;SDS011;46330;50.822;7.126;2023-02-01T02:32:59;18.60;;;3.80;;
9140;SDS011;46330;50.822;7.126;2023-02-01T02:36:05;11.15;;;3.70;;
9140;SDS011;46330;50.822;7.126;2023-02-01T02:38:39;16.27;;;3.97;;
9140;SDS011;46330;50.822;7.126;2023-02-01T02:41:13;11.05;;;3.45;;
9140;SDS011;46330;50.822;7.126;2023-02-01T02:44:08;10.35;;;3.47;;
9140;SDS011;46330;50.822;7.126;2023-02-01T02:47:00;17.23;;;4.78;;
9140;SDS011;46330;50.822;7.126;2023-02-01T02:50:08;14.88;;;4.50;;
9140;SDS011;46330;50.822;7.126;2023-02-01T02:53:02;11.50;;;4.03;;
9140;SDS011;46330;50.822;7.126;2023-02-01T02:55:52;14.30;;;3.53;;
9140;SDS011;46330;50.822;7.126;2023-02-01T02:58:37;17.08;;;3.83;;
9140;SDS011;46330;50.822;7.126;2023-02-01T03:04:08;13.43;;;4.00;;
9140;SDS011;46330;50.822;7.126;2023-02-01T03:06:45;11.60;;;4.25;;
9140;SDS011;46330;50.822;7.126;2023-02-01T03:09:16;16.55;;;4.32;;
9140;SDS011;46330;50.822;7.126;2023-02-01T03:11:48;14.13;;;4.05;;
9140;SDS011;46330;50.822;7.126;2023-02-01T03:14:56;13.25;;;3.70;;
9140;SDS011;46330;50.822;7.126;2023-02-01T03:17:29;17.38;;;4.22;;
9140;SDS011;46330;50.822;7.126;2023-02-01T03:20:02;12.10;;;3.40;;
9140;SDS011;46330;50.822;7.126;2023-02-01T03:22:34;15.63;;;4.03;;
9140;SDS011;46330;50.822;7.126;2023-02-01T03:25:05;16.85;;;3.95;;
9140;SDS011;46330;50.822;7.126;2023-02-01T03:27:40;14.95;;;4.53;;
9140;SDS011;46330;50.822;7.126;2023-02-01T03:30:15;16.58;;;3.90;;
9140;SDS011;46330;50.822;7.126;2023-02-01T03:32:48;15.57;;;3.90;;
9140;SDS011;46330;50.822;7.126;2023-02-01T03:35:30;13.85;;;4.35;;
9140;SDS011;46330;50.822;7.126;2023-02-01T03:38:03;15.93;;;4.13;;
9140;SDS011;46330;50.822;7.126;2023-02-01T03:40:40;17.10;;;4.45;;
9140;SDS011;46330;50.822;7.126;2023-02-01T03:43:14;15.15;;;4.00;;
9140;SDS011;46330;50.822;7.126;2023-02-01T03:45:47;17.73;;;4.03;;
9140;SDS011;46330;50.822;7.126;2023-02-01T03:48:19;15.95;;;3.85;;
9140;SDS011;46330;50.822;7.126;2023-02-01T03:50:52;10.00;;;3.20;;
9140;SDS011;46330;50.822;7.126;2023-02-01T03:53:24;15.90;;;4.25;;
9140;SDS011;46330;50.822;7.126;2023-02-01T03:55:54;14.57;;;4.50;;
9140;SDS011;46330;50.822;7.126;2023-02-01T03:58:23;20.30;;;4.47;;
9140;SDS011;46330;50.822;7.126;2023-02-01T04:00:53;22.38;;;3.92;;
9140;SDS011;46330;50.822;7.126;2023-02-01T04:03:22;15.13;;;3.65;;
9140;SDS011;46330;50.822;7.126;2023-02-01T04:05:51;15.65;;;5.40;;
9140;SDS011;46330;50.822;7.126;2023-02-01T04:08:25;16.83;;;3.65;;
9140;SDS011;46330;50.822;7.126;2023-02-01T04:10:53;15.77;;;3.78;;
9140;SDS011;46330;50.822;7.126;2023-02-01T04:13:21;10.77;;;3.55;;
9140;SDS011;46330;50.822;7.126;2023-02-01T04:15:49;11.52;;;3.70;;
9140;SDS011;46330;50.822;7.126;2023-02-01T04:18:17;16.50;;;3.97;;
9140;SDS011;46330;50.822;7.126;2023-02-01T04:20:45;13.93;;;3.58;;
9140;SDS011;46330;50.822;7.126;2023-02-01T04:23:13;16.20;;;4.35;;
9140;SDS011;46330;50.822;7.126;2023-02-01T04:25:43;13.57;;;3.85;;
9140;SDS011;46330;50.822;7.126;2023-02-01T04:28:11;11.55;;;3.30;;
9140;SDS011;46330;50.822;7.126;2023-02-01T04:30:39;22.05;;;6.88;;
9140;SDS011;46330;50.822;7.126;2023-02-01T04:33:07;16.77;;;4.10;;
9140;SDS011;46330;50.822;7.126;2023-02-01T04:35:35;13.93;;;3.92;;
9140;SDS011;46330;50.822;7.126;2023-02-01T04:38:03;18.13;;;4.13;;
9140;SDS011;46330;50.822;7.126;2023-02-01T04:40:31;11.40;;;3.42;;
9140;SDS011;46330;50.822;7.126;2023-02-01T04:43:01;14.18;;;4.63;;
9140;SDS011;46330;50.822;7.126;2023-02-01T04:45:29;15.25;;;4.03;;
9140;SDS011;46330;50.822;7.126;2023-02-01T04:47:58;17.63;;;4.65;;
9140;SDS011;46330;50.822;7.126;2023-02-01T04:50:25;11.95;;;4.00;;
9140;SDS011;46330;50.822;7.126;2023-02-01T04:52:53;15.38;;;3.90;;
9140;SDS011;46330;50.822;7.126;2023-02-01T04:55:21;17.40;;;5.07;;
9140;SDS011;46330;50.822;7.126;2023-02-01T04:57:49;13.40;;;3.90;;
9140;SDS011;46330;50.822;7.126;2023-02-01T05:00:18;13.13;;;3.63;;
9140;SDS011;46330;50.822;7.126;2023-02-01T05:02:47;18.30;;;4.20;;
9140;SDS011;46330;50.822;7.126;2023-02-01T05:05:15;21.50;;;4.53;;
9140;SDS011;46330;50.822;7.126;2023-02-01T05:07:43;12.10;;;3.33;;
9140;SDS011;46330;50.822;7.126;2023-02-01T05:10:12;15.88;;;3.72;;
9140;SDS011;46330;50.822;7.126;2023-02-01T05:12:41;16.35;;;4.55;;
9140;SDS011;46330;50.822;7.126;2023-02-01T05:15:29;15.35;;;3.47;;
9140;SDS011;46330;50.822;7.126;2023-02-01T05:17:57;18.00;;;4.10;;
9140;SDS011;46330;50.822;7.126;2023-02-01T05:20:25;14.98;;;3.45;;
9140;SDS011;46330;50.822;7.126;2023-02-01T05:22:53;16.92;;;4.25;;
9140;SDS011;46330;50.822;7.126;2023-02-01T05:25:21;12.90;;;3.72;;
9140;SDS011;46330;50.822;7.126;2023-02-01T05:27:49;10.45;;;2.92;;
9140;SDS011;46330;50.822;7.126;2023-02-01T05:30:17;13.55;;;3.72;;
9140;SDS011;46330;50.822;7.126;2023-02-01T05:32:47;21.83;;;3.63;;
9140;SDS011;46330;50.822;7.126;2023-02-01T05:35:17;16.42;;;4.03;;
9140;SDS011;46330;50.822;7.126;2023-02-01T05:37:44;13.48;;;3.40;;
9140;SDS011;46330;50.822;7.126;2023-02-01T05:40:13;18.60;;;3.72;;
9140;SDS011;46330;50.822;7.126;2023-02-01T05:42:40;17.23;;;3.60;;
9140;SDS011;46330;50.822;7.126;2023-02-01T05:45:08;16.95;;;3.40;;
9140;SDS011;46330;50.822;7.126;2023-02-01T05:47:37;14.32;;;3.33;;
9140;SDS011;46330;50.822;7.126;2023-02-01T05:50:07;10.70;;;2.83;;
9140;SDS011;46330;50.822;7.126;2023-02-01T05:52:35;12.90;;;3.05;;
9140;SDS011;46330;50.822;7.126;2023-02-01T05:55:03;14.70;;;3.03;;
9140;SDS011;46330;50.822;7.126;2023-02-01T05:57:32;18.95;;;4.07;;
9140;SDS011;46330;50.822;7.126;2023-02-01T05:59:59;14.52;;;3.08;;
9140;SDS011;46330;50.822;7.126;2023-02-01T06:02:38;20.08;;;4.05;;
9140;SDS011;46330;50.822;7.126;2023-02-01T06:05:08;11.05;;;2.95;;
9140;SDS011;46330;50.822;7.126;2023-02-01T06:07:36;10.38;;;3.00;;
9140;SDS011;46330;50.822;7.126;2023-02-01T06:10:04;16.02;;;2.50;;
9140;SDS011;46330;50.822;7.126;2023-02-01T06:12:32;9.73;;;2.17;;
9140;SDS011;46330;50.822;7.126;2023-02-01T06:15:00;17.48;;;3.42;;
9140;SDS011;46330;50.822;7.126;2023-02-01T06:17:28;12.25;;;2.60;;
9140;SDS011;46330;50.822;7.126;2023-02-01T06:19:56;14.07;;;2.97;;
9140;SDS011;46330;50.822;7.126;2023-02-01T06:22:25;15.50;;;2.60;;
9140;SDS011;46330;50.822;7.126;2023-02-01T06:24:53;17.80;;;3.42;;
9140;SDS011;46330;50.822;7.126;2023-02-01T06:27:21;10.48;;;2.65;;
9140;SDS011;46330;50.822;7.126;2023-02-01T06:29:49;9.55;;;2.58;;
9140;SDS011;46330;50.822;7.126;2023-02-01T06:32:19;14.70;;;3.35;;
9140;SDS011;46330;50.822;7.126;2023-02-01T06:34:46;12.30;;;2.85;;
9140;SDS011;46330;50.822;7.126;2023-02-01T06:37:14;11.68;;;2.47;;
9140;SDS011;46330;50.822;7.126;2023-02-01T06:39:44;17.48;;;3.08;;
9140;SDS011;46330;50.822;7.126;2023-02-01T06:42:13;10.02;;;2.85;;
9140;SDS011;46330;50.822;7.126;2023-02-01T06:44:41;12.38;;;3.05;;
9140;SDS011;46330;50.822;7.126;2023-02-01T06:47:08;18.70;;;4.00;;
9140;SDS011;46330;50.822;7.126;2023-02-01T06:49:36;13.85;;;2.78;;
9140;SDS011;46330;50.822;7.126;2023-02-01T06:52:04;11.30;;;2.63;;
9140;SDS011;46330;50.822;7.126;2023-02-01T06:54:32;12.55;;;3.25;;
9140;SDS011;46330;50.822;7.126;2023-02-01T06:57:04;15.15;;;3.17;;
9140;SDS011;46330;50.822;7.126;2023-02-01T06:59:32;14.60;;;3.50;;
9140;SDS011;46330;50.822;7.126;2023-02-01T07:02:00;16.20;;;4.63;;
9140;SDS011;46330;50.822;7.126;2023-02-01T07:04:28;14.13;;;3.75;;
9140;SDS011;46330;50.822;7.126;2023-02-01T07:06:56;16.30;;;4.07;;
9140;SDS011;46330;50.822;7.126;2023-02-01T07:09:24;17.60;;;4.13;;
9140;SDS011;46330;50.822;7.126;2023-02-01T07:11:52;19.48;;;3.63;;
9140;SDS011;46330;50.822;7.126;2023-02-01T07:14:21;11.65;;;3.00;;
9140;SDS011;46330;50.822;7.126;2023-02-01T07:16:49;15.90;;;3.85;;
9140;SDS011;46330;50.822;7.126;2023-02-01T07:19:17;14.32;;;3.25;;
9140;SDS011;46330;50.822;7.126;2023-02-01T07:21:45;12.15;;;2.92;;
9140;SDS011;46330;50.822;7.126;2023-02-01T07:24:13;13.13;;;2.67;;
9140;SDS011;46330;50.822;7.126;2023-02-01T07:26:41;10.57;;;2.75;;
9140;SDS011;46330;50.822;7.126;2023-02-01T07:29:09;13.55;;;3.38;;
9140;SDS011;46330;50.822;7.126;2023-02-01T07:31:39;11.75;;;2.63;;
9140;SDS011;46330;50.822;7.126;2023-02-01T07:34:07;12.15;;;2.92;;
9140;SDS011;46330;50.822;7.126;2023-02-01T07:36:35;10.13;;;3.05;;
9140;SDS011;46330;50.822;7.126;2023-02-01T07:39:03;19.95;;;3.05;;
9140;SDS011;46330;50.822;7.126;2023-02-01T07:41:31;13.07;;;2.80;;
9140;SDS011;46330;50.822;7.126;2023-02-01T07:43:59;23.92;;;3.80;;
9140;SDS011;46330;50.822;7.126;2023-02-01T07:46:26;18.40;;;2.88;;
9140;SDS011;46330;50.822;7.126;2023-02-01T07:48:56;19.77;;;3.25;;
9140;SDS011;46330;50.822;7.126;2023-02-01T07:51:24;14.27;;;3.53;;
9140;SDS011;46330;50.822;7.126;2023-02-01T07:53:52;18.83;;;3.28;;
9140;SDS011;46330;50.822;7.126;2023-02-01T07:56:21;18.33;;;3.80;;
9140;SDS011;46330;50.822;7.126;2023-02-01T07:58:50;16.58;;;3.30;;
9140;SDS011;46330;50.822;7.126;2023-02-01T08:01:20;19.95;;;3.20;;
9140;SDS011;46330;50.822;7.126;2023-02-01T08:03:50;16.95;;;3.45;;
9140;SDS011;46330;50.822;7.126;2023-02-01T08:06:21;16.73;;;2.95;;
9140;SDS011;46330;50.822;7.126;2023-02-01T08:08:49;14.90;;;3.00;;
9140;SDS011;46330;50.822;7.126;2023-02-01T08:11:18;11.63;;;2.78;;
9140;SDS011;46330;50.822;7.126;2023-02-01T08:13:46;8.00;;;2.10;;
9140;SDS011;46330;50.822;7.126;2023-02-01T08:16:15;13.52;;;2.72;;
9140;SDS011;46330;50.822;7.126;2023-02-01T08:18:44;15.25;;;2.83;;
9140;SDS011;46330;50.822;7.126;2023-02-01T08:21:17;12.32;;;2.35;;
9140;SDS011;46330;50.822;7.126;2023-02-01T08:23:49;15.27;;;3.10;;
9140;SDS011;46330;50.822;7.126;2023-02-01T08:26:18;13.95;;;3.30;;
9140;SDS011;46330;50.822;7.126;2023-02-01T08:28:48;13.35;;;2.83;;
9140;SDS011;46330;50.822;7.126;2023-02-01T08:31:19;9.48;;;2.53;;
9140;SDS011;46330;50.822;7.126;2023-02-01T08:33:50;16.15;;;2.78;;
9140;SDS011;46330;50.822;7.126;2023-02-01T08:36:19;16.40;;;3.60;;
9140;SDS011;46330;50.822;7.126;2023-02-01T08:38:47;20.23;;;3.60;;
9140;SDS011;46330;50.822;7.126;2023-02-01T08:41:18;15.50;;;3.35;;
9140;SDS011;46330;50.822;7.126;2023-02-01T08:43:47;13.85;;;3.20;;
9140;SDS011;46330;50.822;7.126;2023-02-01T08:46:15;13.82;;;3.38;;
9140;SDS011;46330;50.822;7.126;2023-02-01T08:48:45;14.95;;;2.95;;
9140;SDS011;46330;50.822;7.126;2023-02-01T08:51:14;12.05;;;3.33;;
9140;SDS011;46330;50.822;7.126;2023-02-01T08:53:44;19.02;;;4.28;;
9140;SDS011;46330;50.822;7.126;2023-02-01T08:56:14;12.38;;;2.90;;
9140;SDS011;46330;50.822;7.126;2023-02-01T08:58:43;14.27;;;3.42;;
9140;SDS011;46330;50.822;7.126;2023-02-01T09:01:13;6.75;;;2.55;;
9140;SDS011;46330;50.822;7.126;2023-02-01T09:03:43;15.20;;;3.17;;
9140;SDS011;46330;50.822;7.126;2023-02-01T09:06:12;16.23;;;3.42;;
9140;SDS011;46330;50.822;7.126;2023-02-01T09:08:42;14.30;;;3.65;;
9140;SDS011;46330;50.822;7.126;2023-02-01T09:11:11;15.77;;;3.67;;
9140;SDS011;46330;50.822;7.126;2023-02-01T09:13:42;12.98;;;3.10;;
9140;SDS011;46330;50.822;7.126;2023-02-01T09:16:10;14.57;;;3.10;;
9140;SDS011;46330;50.822;7.126;2023-02-01T09:18:39;9.77;;;2.35;;
9140;SDS011;46330;50.822;7.126;2023-02-01T09:21:21;12.43;;;2.97;;
9140;SDS011;46330;50.822;7.126;2023-02-01T09:23:50;16.90;;;3.28;;
9140;SDS011;46330;50.822;7.126;2023-02-01T09:26:18;10.98;;;2.53;;
9140;SDS011;46330;50.822;7.126;2023-02-01T09:28:58;12.98;;;2.58;;
9140;SDS011;46330;50.822;7.126;2023-02-01T09:31:26;11.88;;;2.88;;
9140;SDS011;46330;50.822;7.126;2023-02-01T09:33:54;15.85;;;2.90;;
9140;SDS011;46330;50.822;7.126;2023-02-01T09:36:22;8.23;;;2.13;;
9140;SDS011;46330;50.822;7.126;2023-02-01T09:38:50;8.73;;;1.98;;
9140;SDS011;46330;50.822;7.126;2023-02-01T09:41:22;17.27;;;3.00;;
9140;SDS011;46330;50.822;7.126;2023-02-01T09:44:02;11.63;;;2.75;;
9140;SDS011;46330;50.822;7.126;2023-02-01T09:46:40;11.98;;;2.83;;
9140;SDS011;46330;50.822;7.126;2023-02-01T09:49:10;16.20;;;3.15;;
9140;SDS011;46330;50.822;7.126;2023-02-01T09:51:42;15.77;;;3.20;;
9140;SDS011;46330;50.822;7.126;2023-02-01T09:54:14;11.35;;;3.05;;
9140;SDS011;46330;50.822;7.126;2023-02-01T09:56:46;12.45;;;2.88;;
9140;SDS011;46330;50.822;7.126;2023-02-01T09:59:23;13.10;;;3.40;;
9140;SDS011;46330;50.822;7.126;2023-02-01T10:01:58;14.18;;;3.78;;
9140;SDS011;46330;50.822;7.126;2023-02-01T10:04:27;16.52;;;3.10;;
9140;SDS011;46330;50.822;7.126;2023-02-01T10:07:01;16.55;;;3.42;;
9140;SDS011;46330;50.822;7.126;2023-02-01T10:09:42;14.00;;;3.40;;
9140;SDS011;46330;50.822;7.126;2023-02-01T10:15:18;10.02;;;2.97;;
9140;SDS011;46330;50.822;7.126;2023-02-01T10:17:57;14.65;;;2.95;;
9140;SDS011;46330;50.822;7.126;2023-02-01T10:20:36;15.27;;;3.17;;
9140;SDS011;46330;50.822;7.126;2023-02-01T10:23:19;14.05;;;2.80;;
9140;SDS011;46330;50.822;7.126;2023-02-01T10:26:00;16.83;;;3.30;;
9140;SDS011;46330;50.822;7.126;2023-02-01T10:28:39;7.15;;;2.53;;
9140;SDS011;46330;50.822;7.126;2023-02-01T10:31:11;15.27;;;3.20;;
9140;SDS011;46330;50.822;7.126;2023-02-01T10:33:41;10.90;;;2.53;;
9140;SDS011;46330;50.822;7.126;2023-02-01T10:36:13;13.50;;;3.03;;
9140;SDS011;46330;50.822;7.126;2023-02-01T10:38:47;15.57;;;2.55;;
9140;SDS011;46330;50.822;7.126;2023-02-01T10:41:16;10.05;;;2.53;;
9140;SDS011;46330;50.822;7.126;2023-02-01T10:43:48;11.02;;;2.92;;
9140;SDS011;46330;50.822;7.126;2023-02-01T10:46:22;9.95;;;2.70;;
9140;SDS011;46330;50.822;7.126;2023-02-01T10:48:50;14.13;;;3.15;;
9140;SDS011;46330;50.822;7.126;2023-02-01T10:51:24;17.25;;;5.30;;
9140;SDS011;46330;50.822;7.126;2023-02-01T10:53:55;11.55;;;2.92;;
9140;SDS011;46330;50.822;7.126;2023-02-01T10:56:28;11.63;;;2.78;;
9140;SDS011;46330;50.822;7.126;2023-02-01T10:59:00;13.07;;;2.88;;
9140;SDS011;46330;50.822;7.126;2023-02-01T11:01:33;10.57;;;2.63;;
9140;SDS011;46330;50.822;7.126;2023-02-01T11:04:05;12.77;;;3.00;;
9140;SDS011;46330;50.822;7.126;2023-02-01T11:06:37;11.40;;;2.50;;
9140;SDS011;46330;50.822;7.126;2023-02-01T11:09:10;15.32;;;2.33;;
9140;SDS011;46330;50.822;7.126;2023-02-01T11:11:54;10.48;;;2.53;;
9140;SDS011;46330;50.822;7.126;2023-02-01T11:14:27;13.73;;;3.30;;
9140;SDS011;46330;50.822;7.126;2023-02-01T11:17:12;15.18;;;2.95;;
9140;SDS011;46330;50.822;7.126;2023-02-01T11:19:56;14.95;;;2.63;;
9140;SDS011;46330;50.822;7.126;2023-02-01T11:22:25;11.60;;;2.75;;
9140;SDS011;46330;50.822;7.126;2023-02-01T11:24:55;8.10;;;2.78;;
9140;SDS011;46330;50.822;7.126;2023-02-01T11:27:28;11.35;;;2.50;;
9140;SDS011;46330;50.822;7.126;2023-02-01T11:29:57;10.35;;;2.42;;
9140;SDS011;46330;50.822;7.126;2023-02-01T11:32:31;13.23;;;3.10;;
9140;SDS011;46330;50.822;7.126;2023-02-01T11:35:00;13.52;;;3.22;;
9140;SDS011;46330;50.822;7.126;2023-02-01T11:37:32;13.73;;;3.20;;
9140;SDS011;46330;50.822;7.126;2023-02-01T11:40:04;11.15;;;2.70;;
9140;SDS011;46330;50.822;7.126;2023-02-01T11:42:53;12.45;;;2.80;;
9140;SDS011;46330;50.822;7.126;2023-02-01T11:45:24;11.77;;;3.03;;
9140;SDS011;46330;50.822;7.126;2023-02-01T11:47:55;11.95;;;3.33;;
9140;SDS011;46330;50.822;7.126;2023-02-01T11:50:27;12.70;;;2.75;;
9140;SDS011;46330;50.822;7.126;2023-02-01T11:53:09;10.35;;;2.70;;
9140;SDS011;46330;50.822;7.126;2023-02-01T11:55:51;7.03;;;2.40;;
9140;SDS011;46330;50.822;7.126;2023-02-01T11:58:28;7.65;;;2.45;;
9140;SDS011;46330;50.822;7.126;2023-02-01T12:01:20;14.32;;;3.13;;
9140;SDS011;46330;50.822;7.126;2023-02-01T12:04:07;11.00;;;2.70;;
9140;SDS011;46330;50.822;7.126;2023-02-01T12:06:46;12.98;;;3.10;;
9140;SDS011;46330;50.822;7.126;2023-02-01T12:09:21;10.80;;;3.47;;
9140;SDS011;46330;50.822;7.126;2023-02-01T12:12:02;13.23;;;2.92;;
9140;SDS011;46330;50.822;7.126;2023-02-01T12:14:38;8.95;;;2.75;;
9140;SDS011;46330;50.822;7.126;2023-02-01T12:17:32;11.50;;;2.72;;
9140;SDS011;46330;50.822;7.126;2023-02-01T12:20:27;7.28;;;2.38;;
9140;SDS011;46330;50.822;7.126;2023-02-01T12:23:07;6.05;;;2.08;;
9140;SDS011;46330;50.822;7.126;2023-02-01T12:25:54;12.25;;;2.72;;
9140;SDS011;46330;50.822;7.126;2023-02-01T12:28:43;11.50;;;3.20;;
9140;SDS011;46330;50.822;7.126;2023-02-01T12:31:31;14.65;;;2.63;;
9140;SDS011;46330;50.822;7.126;2023-02-01T12:34:20;12.55;;;2.60;;
9140;SDS011;46330;50.822;7.126;2023-02-01T12:37:06;9.43;;;2.47;;
9140;SDS011;46330;50.822;7.126;2023-02-01T12:39:46;8.63;;;2.20;;
9140;SDS011;46330;50.822;7.126;2023-02-01T12:42:20;10.03;;;2.30;;
9140;SDS011;46330;50.822;7.126;2023-02-01T12:44:53;12.23;;;2.25;;
9140;SDS011;46330;50.822;7.126;2023-02-01T12:47:27;6.28;;;1.92;;
9140;SDS011;46330;50.822;7.126;2023-02-01T12:50:00;12.30;;;2.83;;
9140;SDS011;46330;50.822;7.126;2023-02-01T12:52:34;10.23;;;2.90;;
9140;SDS011;46330;50.822;7.126;2023-02-01T12:55:07;8.75;;;2.35;;
9140;SDS011;46330;50.822;7.126;2023-02-01T12:57:49;9.73;;;2.25;;
9140;SDS011;46330;50.822;7.126;2023-02-01T13:00:23;11.00;;;2.83;;
9140;SDS011;46330;50.822;7.126;2023-02-01T13:03:00;14.65;;;3.00;;
9140;SDS011;46330;50.822;7.126;2023-02-01T13:05:37;8.07;;;2.80;;
9140;SDS011;46330;50.822;7.126;2023-02-01T13:08:17;6.93;;;2.00;;
9140;SDS011;46330;50.822;7.126;2023-02-01T13:10:51;11.65;;;2.45;;
9140;SDS011;46330;50.822;7.126;2023-02-01T13:13:26;18.27;;;2.50;;
9140;SDS011;46330;50.822;7.126;2023-02-01T13:16:02;10.20;;;2.67;;
9140;SDS011;46330;50.822;7.126;2023-02-01T13:18:39;14.15;;;2.67;;
9140;SDS011;46330;50.822;7.126;2023-02-01T13:21:12;11.20;;;2.47;;
9140;SDS011;46330;50.822;7.126;2023-02-01T13:23:45;8.32;;;2.22;;
9140;SDS011;46330;50.822;7.126;2023-02-01T13:26:15;13.65;;;2.40;;
9140;SDS011;46330;50.822;7.126;2023-02-01T13:28:44;10.68;;;2.60;;
9140;SDS011;46330;50.822;7.126;2023-02-01T13:37:34;8.15;;;2.47;;
9140;SDS011;46330;50.822;7.126;2023-02-01T13:40:23;8.73;;;2.30;;
9140;SDS011;46330;50.822;7.126;2023-02-01T13:43:02;9.60;;;2.53;;
9140;SDS011;46330;50.822;7.126;2023-02-01T13:45:36;13.85;;;2.60;;
9140;SDS011;46330;50.822;7.126;2023-02-01T13:48:14;13.40;;;3.80;;
9140;SDS011;46330;50.822;7.126;2023-02-01T13:50:50;9.02;;;2.42;;
9140;SDS011;46330;50.822;7.126;2023-02-01T13:53:23;8.10;;;2.38;;
9140;SDS011;46330;50.822;7.126;2023-02-01T13:55:58;8.65;;;2.38;;
9140;SDS011;46330;50.822;7.126;2023-02-01T13:58:32;14.98;;;2.60;;
9140;SDS011;46330;50.822;7.126;2023-02-01T14:04:03;13.30;;;3.42;;
9140;SDS011;46330;50.822;7.126;2023-02-01T14:06:42;10.98;;;3.05;;
9140;SDS011;46330;50.822;7.126;2023-02-01T14:09:13;11.85;;;2.75;;
9140;SDS011;46330;50.822;7.126;2023-02-01T14:11:48;11.23;;;2.38;;
9140;SDS011;46330;50.822;7.126;2023-02-01T14:23:23;8.38;;;2.00;;
9140;SDS011;46330;50.822;7.126;2023-02-01T14:26:09;11.55;;;2.40;;
9140;SDS011;46330;50.822;7.126;2023-02-01T14:28:42;10.85;;;2.40;;
9140;SDS011;46330;50.822;7.126;2023-02-01T14:31:27;8.70;;;2.55;;
9140;SDS011;46330;50.822;7.126;2023-02-01T14:34:14;7.10;;;2.58;;
9140;SDS011;46330;50.822;7.126;2023-02-01T14:36:46;14.52;;;2.85;;
9140;SDS011;46330;50.822;7.126;2023-02-01T14:39:26;7.80;;;2.20;;
9140;SDS011;46330;50.822;7.126;2023-02-01T14:41:57;12.10;;;2.33;;
9140;SDS011;46330;50.822;7.126;2023-02-01T14:44:36;11.27;;;2.13;;
9140;SDS011;46330;50.822;7.126;2023-02-01T14:47:32;7.00;;;2.25;;
9140;SDS011;46330;50.822;7.126;2023-02-01T14:52:58;14.10;;;1.90;;
9140;SDS011;46330;50.822;7.126;2023-02-01T14:55:34;7.40;;;2.05;;
9140;SDS011;46330;50.822;7.126;2023-02-01T14:58:06;10.85;;;2.70;;
9140;SDS011;46330;50.822;7.126;2023-02-01T15:00:51;10.68;;;2.25;;
9140;SDS011;46330;50.822;7.126;2023-02-01T15:06:13;15.32;;;2.80;;
9140;SDS011;46330;50.822;7.126;2023-02-01T15:08:48;9.23;;;2.47;;
9140;SDS011;46330;50.822;7.126;2023-02-01T15:11:16;9.98;;;2.58;;
9140;SDS011;46330;50.822;7.126;2023-02-01T15:13:47;16.65;;;2.63;;
9140;SDS011;46330;50.822;7.126;2023-02-01T15:16:21;10.82;;;2.75;;
9140;SDS011;46330;50.822;7.126;2023-02-01T15:18:50;9.55;;;2.10;;
9140;SDS011;46330;50.822;7.126;2023-02-01T15:24:11;9.45;;;2.00;;
9140;SDS011;46330;50.822;7.126;2023-02-01T15:26:40;11.27;;;2.70;;
9140;SDS011;46330;50.822;7.126;2023-02-01T15:29:10;10.32;;;2.75;;
9140;SDS011;46330;50.822;7.126;2023-02-01T15:31:41;10.88;;;2.35;;
9140;SDS011;46330;50.822;7.126;2023-02-01T15:34:12;10.05;;;2.00;;
9140;SDS011;46330;50.822;7.126;2023-02-01T15:36:40;10.88;;;2.30;;
9140;SDS011;46330;50.822;7.126;2023-02-01T15:39:27;12.55;;;2.58;;
9140;SDS011;46330;50.822;7.126;2023-02-01T15:41:59;8.80;;;2.25;;
9140;SDS011;46330;50.822;7.126;2023-02-01T15:44:37;8.30;;;2.30;;
9140;SDS011;46330;50.822;7.126;2023-02-01T15:47:12;12.52;;;3.20;;
9140;SDS011;46330;50.822;7.126;2023-02-01T15:49:44;10.98;;;2.90;;
9140;SDS011;46330;50.822;7.126;2023-02-01T15:52:20;10.05;;;2.50;;
9140;SDS011;46330;50.822;7.126;2023-02-01T15:54:52;9.18;;;2.33;;
9140;SDS011;46330;50.822;7.126;2023-02-01T15:57:23;9.02;;;2.03;;
9140;SDS011;46330;50.822;7.126;2023-02-01T15:59:57;12.60;;;2.45;;
9140;SDS011;46330;50.822;7.126;2023-02-01T16:02:41;6.63;;;1.90;;
9140;SDS011;46330;50.822;7.126;2023-02-01T16:05:25;12.23;;;2.80;;
9140;SDS011;46330;50.822;7.126;2023-02-01T16:07:59;9.07;;;2.22;;